createdAt,value
2022-12-12T00:01:28.337Z,17.00
2022-12-12T00:03:56.770Z,17.20
2022-12-12T00:06:26.160Z,17.10
2022-12-12T00:08:55.912Z,16.80
2022-12-12T00:11:25.557Z,17.20
2022-12-12T00:13:55.318Z,17.20
2022-12-12T00:16:25.037Z,17.10
2022-12-12T00:18:53.378Z,17.00
2022-12-12T00:21:26.366Z,17.10
2022-12-12T00:23:56.518Z,17.00
2022-12-12T00:26:28.125Z,17.00
2022-12-12T00:28:57.373Z,16.90
2022-12-12T00:31:25.553Z,17.10
2022-12-12T00:33:53.599Z,17.00
2022-12-12T00:36:26.373Z,16.80
2022-12-12T00:38:56.920Z,16.90
2022-12-12T00:41:25.721Z,16.80
2022-12-12T00:43:53.868Z,16.80
2022-12-12T00:46:25.882Z,17.10
2022-12-12T00:48:57.061Z,17.10
2022-12-12T00:51:27.942Z,17.30
2022-12-12T00:53:57.786Z,17.10
2022-12-12T00:56:27.109Z,17.20
2022-12-12T00:58:55.348Z,17.50
2022-12-12T01:01:26.330Z,17.20
2022-12-12T01:03:54.938Z,17.50
2022-12-12T01:06:24.109Z,17.20
2022-12-12T01:08:52.513Z,17.60
2022-12-12T01:11:22.673Z,17.10
2022-12-12T01:13:53.004Z,17.40
2022-12-12T01:16:22.459Z,17.60
2022-12-12T01:18:50.912Z,17.50
2022-12-12T01:21:20.874Z,17.20
2022-12-12T01:23:49.730Z,17.60
2022-12-12T01:26:22.171Z,17.60
2022-12-12T01:28:51.330Z,17.40
2022-12-12T01:31:19.519Z,17.50
2022-12-12T01:33:47.789Z,17.20
2022-12-12T01:36:18.359Z,17.30
2022-12-12T01:38:46.590Z,17.50
2022-12-12T01:41:15.865Z,17.50
2022-12-12T01:43:45.443Z,17.30
2022-12-12T01:46:40.390Z,17.40
2022-12-12T01:49:22.612Z,17.20
2022-12-12T01:51:53.878Z,17.40
2022-12-12T01:54:27.928Z,17.60
2022-12-12T01:56:58.201Z,17.60
2022-12-12T01:59:29.377Z,17.50
2022-12-12T02:01:58.385Z,17.50
2022-12-12T02:04:28.873Z,17.30
2022-12-12T02:06:58.670Z,17.60
2022-12-12T02:09:27.391Z,17.60
2022-12-12T02:11:58.190Z,17.30
2022-12-12T02:14:31.544Z,17.60
2022-12-12T02:17:30.683Z,17.10
2022-12-12T02:20:47.262Z,17.40
2022-12-12T02:24:02.783Z,17.30
2022-12-12T02:27:24.938Z,17.60
2022-12-12T02:30:19.582Z,17.40
2022-12-12T02:33:23.281Z,16.90
2022-12-12T02:36:08.869Z,17.00
2022-12-12T02:38:50.335Z,16.70
2022-12-12T02:41:28.194Z,16.70
2022-12-12T02:44:09.256Z,17.30
2022-12-12T02:46:45.481Z,17.00
2022-12-12T02:49:18.906Z,16.80
2022-12-12T02:51:49.290Z,17.20
2022-12-12T02:54:21.616Z,16.90
2022-12-12T02:56:54.333Z,16.90
2022-12-12T02:59:29.795Z,17.10
2022-12-12T03:02:33.173Z,16.80
2022-12-12T03:05:38.451Z,16.60
2022-12-12T03:08:32.128Z,16.90
2022-12-12T03:11:04.022Z,16.90
2022-12-12T03:13:44.521Z,17.00
2022-12-12T03:16:25.308Z,16.90
2022-12-12T03:19:00.095Z,16.90
2022-12-12T03:21:40.046Z,17.00
2022-12-12T03:24:12.161Z,16.30
2022-12-12T03:26:47.816Z,16.70
2022-12-12T03:29:20.698Z,16.60
2022-12-12T03:31:57.341Z,16.30
2022-12-12T03:34:31.777Z,16.50
2022-12-12T03:37:08.985Z,16.50
2022-12-12T03:39:42.500Z,16.60
2022-12-12T03:42:16.970Z,16.90
2022-12-12T03:44:49.537Z,16.60
2022-12-12T03:47:22.156Z,16.60
2022-12-12T03:49:57.217Z,16.30
2022-12-12T03:52:31.635Z,16.30
2022-12-12T03:55:05.050Z,16.60
2022-12-12T03:57:38.912Z,16.30
2022-12-12T04:00:10.804Z,16.60
2022-12-12T04:02:45.255Z,16.20
2022-12-12T04:05:19.699Z,16.80
2022-12-12T04:07:54.825Z,16.40
2022-12-12T04:10:43.765Z,16.50
2022-12-12T04:13:17.115Z,16.20
2022-12-12T04:15:55.437Z,16.30
2022-12-12T04:18:41.256Z,16.80
2022-12-12T04:21:37.703Z,16.50
2022-12-12T04:24:20.945Z,16.60
2022-12-12T04:26:54.537Z,16.30
2022-12-12T04:29:43.346Z,16.40
2022-12-12T04:32:19.998Z,16.40
2022-12-12T04:34:54.713Z,16.60
2022-12-12T04:37:27.337Z,16.30
2022-12-12T04:40:01.098Z,16.20
2022-12-12T04:42:33.333Z,16.20
2022-12-12T04:45:08.483Z,16.50
2022-12-12T04:47:39.558Z,16.50
2022-12-12T04:50:10.689Z,16.50
2022-12-12T04:52:40.770Z,16.50
2022-12-12T04:55:15.082Z,16.50
2022-12-12T04:57:46.524Z,16.20
2022-12-12T05:00:15.991Z,16.20
2022-12-12T05:02:53.171Z,16.40
2022-12-12T05:05:27.917Z,16.20
2022-12-12T05:08:00.990Z,16.30
2022-12-12T05:10:31.045Z,16.50
2022-12-12T05:13:01.235Z,16.40
2022-12-12T05:15:30.635Z,16.40
2022-12-12T05:18:03.118Z,16.40
2022-12-12T05:20:31.140Z,16.40
2022-12-12T05:22:59.110Z,16.40
2022-12-12T05:25:27.525Z,16.30
2022-12-12T05:27:57.315Z,16.20
2022-12-12T05:30:25.701Z,16.20
2022-12-12T05:32:57.491Z,16.40
2022-12-12T05:35:26.096Z,16.50
2022-12-12T05:37:54.192Z,16.40
2022-12-12T05:40:23.569Z,16.30
2022-12-12T05:42:51.609Z,16.40
2022-12-12T05:45:20.974Z,16.30
2022-12-12T05:47:49.066Z,16.30
2022-12-12T05:50:17.267Z,16.50
2022-12-12T05:52:45.980Z,16.30
2022-12-12T05:55:14.913Z,16.40
2022-12-12T05:57:43.216Z,16.20
2022-12-12T06:00:12.460Z,16.30
2022-12-12T06:02:41.852Z,16.30
2022-12-12T06:05:11.092Z,16.40
2022-12-12T06:07:39.966Z,16.30
2022-12-12T06:10:09.751Z,16.40
2022-12-12T06:12:37.870Z,16.40
2022-12-12T06:15:07.175Z,16.40
2022-12-12T06:17:35.254Z,16.40
2022-12-12T06:20:06.323Z,16.20
2022-12-12T06:22:35.889Z,16.30
2022-12-12T06:25:04.891Z,16.30
2022-12-12T06:27:32.888Z,16.20
2022-12-12T06:30:00.889Z,16.20
2022-12-12T06:32:28.827Z,16.50
2022-12-12T06:34:56.812Z,16.20
2022-12-12T06:37:26.263Z,16.50
2022-12-12T06:39:54.523Z,16.20
2022-12-12T06:42:22.862Z,16.20
2022-12-12T06:44:50.831Z,16.30
2022-12-12T06:47:18.945Z,16.30
2022-12-12T06:49:46.945Z,16.30
2022-12-12T06:52:14.914Z,16.10
2022-12-12T06:54:44.175Z,16.30
2022-12-12T06:57:12.771Z,16.70
2022-12-12T06:59:40.794Z,16.30
2022-12-12T07:02:10.663Z,16.20
2022-12-12T07:04:38.677Z,16.40
2022-12-12T07:07:06.852Z,16.20
2022-12-12T07:09:35.014Z,16.30
2022-12-12T07:12:05.000Z,16.30
2022-12-12T07:14:33.071Z,16.30
2022-12-12T07:17:01.061Z,16.40
2022-12-12T07:19:29.019Z,16.30
2022-12-12T07:21:56.997Z,16.10
2022-12-12T07:24:24.994Z,16.20
2022-12-12T07:26:56.255Z,16.30
2022-12-12T07:29:25.552Z,16.20
2022-12-12T07:31:53.629Z,16.40
2022-12-12T07:34:21.676Z,16.50
2022-12-12T07:36:50.188Z,16.70
2022-12-12T07:39:20.974Z,16.40
2022-12-12T07:41:49.374Z,16.20
2022-12-12T07:44:17.836Z,16.30
2022-12-12T07:46:47.241Z,16.50
2022-12-12T07:49:15.311Z,16.50
2022-12-12T07:51:48.717Z,16.70
2022-12-12T07:54:17.397Z,16.40
2022-12-12T07:56:45.457Z,16.50
2022-12-12T07:59:13.684Z,16.30
2022-12-12T08:01:41.741Z,16.30
2022-12-12T08:04:11.119Z,16.50
2022-12-12T08:06:39.117Z,16.30
2022-12-12T08:09:07.118Z,16.30
2022-12-12T08:11:35.183Z,16.20
2022-12-12T08:14:05.899Z,16.20
2022-12-12T08:16:37.482Z,16.30
2022-12-12T08:19:05.946Z,16.30
2022-12-12T08:21:35.267Z,16.50
2022-12-12T08:24:03.971Z,16.40
2022-12-12T08:26:32.867Z,16.20
2022-12-12T08:29:01.151Z,16.50
2022-12-12T08:31:29.904Z,16.70
2022-12-12T08:33:58.972Z,16.90
2022-12-12T08:36:30.098Z,16.30
2022-12-12T08:39:00.323Z,16.80
2022-12-12T08:41:28.396Z,16.60
2022-12-12T08:43:56.393Z,16.90
2022-12-12T08:46:24.518Z,16.60
2022-12-12T08:48:52.576Z,17.00
2022-12-12T08:51:21.017Z,16.90
2022-12-12T08:53:50.834Z,17.00
2022-12-12T08:56:22.038Z,17.10
2022-12-12T08:58:51.563Z,17.00
2022-12-12T09:01:22.923Z,17.10
2022-12-12T09:03:52.407Z,17.20
2022-12-12T09:06:21.287Z,17.10
2022-12-12T09:08:50.022Z,17.70
2022-12-12T09:11:20.227Z,17.80
2022-12-12T09:13:48.424Z,17.60
2022-12-12T09:16:17.174Z,17.80
2022-12-12T09:18:49.109Z,17.70
2022-12-12T09:21:18.117Z,17.70
2022-12-12T09:23:46.140Z,17.90
2022-12-12T09:26:14.168Z,17.70
2022-12-12T09:28:43.538Z,17.60
2022-12-12T09:31:13.574Z,18.10
2022-12-12T09:33:42.779Z,18.10
2022-12-12T09:36:13.066Z,16.40
2022-12-12T09:38:41.181Z,14.40
2022-12-12T09:41:15.866Z,13.40
2022-12-12T09:43:54.759Z,13.30
2022-12-12T09:46:32.520Z,13.80
2022-12-12T09:49:11.871Z,15.60
2022-12-12T09:51:40.446Z,16.60
2022-12-12T09:54:08.476Z,17.30
2022-12-12T09:56:43.543Z,17.70
2022-12-12T09:59:18.523Z,17.90
2022-12-12T10:02:00.957Z,17.80
2022-12-12T10:04:39.449Z,18.20
2022-12-12T10:07:14.998Z,18.10
2022-12-12T10:09:56.939Z,18.40
2022-12-12T10:12:26.087Z,18.40
2022-12-12T10:14:59.363Z,18.50
2022-12-12T10:17:32.516Z,18.60
2022-12-12T10:20:06.693Z,18.60
2022-12-12T10:22:44.038Z,18.50
2022-12-12T10:25:22.568Z,19.00
2022-12-12T10:27:54.378Z,18.80
2022-12-12T10:30:23.963Z,18.80
2022-12-12T10:33:15.217Z,19.20
2022-12-12T10:35:52.985Z,19.00
2022-12-12T10:38:46.605Z,19.20
2022-12-12T10:41:22.850Z,19.20
2022-12-12T10:43:58.335Z,19.30
2022-12-12T10:46:32.586Z,19.30
2022-12-12T10:49:01.024Z,19.20
2022-12-12T10:51:30.587Z,19.10
2022-12-12T10:53:58.614Z,19.30
2022-12-12T10:56:29.575Z,19.20
2022-12-12T10:58:59.780Z,19.30
2022-12-12T11:04:22.146Z,19.40
2022-12-12T11:06:52.837Z,19.50
2022-12-12T11:09:24.935Z,19.60
2022-12-12T11:12:02.311Z,19.30
2022-12-12T11:14:35.963Z,19.40
2022-12-12T11:17:22.864Z,19.60
2022-12-12T11:19:51.109Z,19.30
2022-12-12T11:22:19.314Z,19.90
2022-12-12T11:24:49.587Z,19.70
2022-12-12T11:27:25.158Z,19.70
2022-12-12T11:29:55.992Z,19.80
2022-12-12T11:32:31.355Z,19.80
2022-12-12T11:35:03.098Z,20.00
2022-12-12T11:37:39.391Z,19.90
2022-12-12T11:40:21.380Z,19.80
2022-12-12T11:42:50.747Z,19.80
2022-12-12T11:45:24.835Z,19.90
2022-12-12T11:47:55.129Z,19.80
2022-12-12T11:50:25.571Z,19.80
2022-12-12T11:52:55.854Z,19.90
2022-12-12T11:55:35.169Z,20.20
2022-12-12T11:58:16.912Z,20.40
2022-12-12T12:00:52.593Z,20.50
2022-12-12T12:03:30.682Z,20.40
2022-12-12T12:06:19.417Z,20.20
2022-12-12T12:09:16.931Z,20.10
2022-12-12T12:11:57.953Z,20.70
2022-12-12T12:15:02.224Z,20.30
2022-12-12T12:17:48.793Z,20.60
2022-12-12T12:20:30.770Z,20.50
2022-12-12T12:23:09.480Z,20.70
2022-12-12T12:25:48.063Z,20.40
2022-12-12T12:29:00.841Z,20.50
2022-12-12T12:31:40.472Z,20.70
2022-12-12T12:34:20.707Z,20.70
2022-12-12T12:37:04.890Z,20.60
2022-12-12T12:39:59.687Z,20.60
2022-12-12T12:43:00.675Z,20.50
2022-12-12T12:45:45.480Z,20.70
2022-12-12T12:48:20.505Z,20.70
2022-12-12T12:50:56.477Z,20.80
2022-12-12T12:53:34.729Z,20.80
2022-12-12T12:56:10.497Z,20.80
2022-12-12T12:58:46.058Z,20.70
2022-12-12T13:01:18.839Z,20.80
2022-12-12T13:03:57.091Z,20.80
2022-12-12T13:06:39.680Z,20.60
2022-12-12T13:09:22.971Z,20.80
2022-12-12T13:11:56.170Z,20.80
2022-12-12T13:14:38.031Z,20.90
2022-12-12T13:17:09.119Z,20.60
2022-12-12T13:19:42.001Z,20.80
2022-12-12T13:22:16.445Z,20.70
2022-12-12T13:24:59.785Z,20.70
2022-12-12T13:27:33.926Z,20.80
2022-12-12T13:30:07.919Z,20.90
2022-12-12T13:33:13.213Z,20.80
2022-12-12T13:35:46.075Z,20.70
2022-12-12T13:38:20.608Z,20.90
2022-12-12T13:40:58.421Z,20.80
2022-12-12T13:43:42.953Z,21.00
2022-12-12T13:46:40.871Z,20.80
2022-12-12T13:49:35.263Z,20.80
2022-12-12T13:52:28.132Z,20.90
2022-12-12T13:55:23.827Z,20.70
2022-12-12T13:58:34.108Z,20.80
2022-12-12T14:01:39.021Z,20.80
2022-12-12T14:04:07.422Z,20.80
2022-12-12T14:06:35.679Z,20.80
2022-12-12T14:09:04.488Z,20.70
2022-12-12T14:11:36.866Z,20.50
2022-12-12T14:14:17.730Z,20.50
2022-12-12T14:16:54.492Z,20.70
2022-12-12T14:19:30.241Z,20.60
2022-12-12T14:21:58.394Z,20.70
2022-12-12T14:24:56.637Z,20.70
2022-12-12T14:28:17.893Z,20.70
2022-12-12T14:31:08.392Z,20.70
2022-12-12T14:34:01.233Z,20.50
2022-12-12T14:37:09.048Z,20.80
2022-12-12T14:40:06.252Z,20.80
2022-12-12T14:43:18.965Z,20.50
2022-12-12T14:45:36.926Z,20.70
2022-12-12T14:48:28.957Z,20.60
2022-12-12T14:51:09.046Z,20.70
2022-12-12T14:53:48.267Z,20.00
2022-12-12T14:56:19.146Z,20.60
2022-12-12T14:58:51.526Z,20.40
2022-12-12T15:01:36.342Z,19.90
2022-12-12T15:04:09.052Z,19.90
2022-12-12T15:06:42.743Z,20.40
2022-12-12T15:09:27.343Z,20.40
2022-12-12T15:12:05.634Z,20.10
2022-12-12T15:14:33.682Z,19.80
2022-12-12T15:17:05.754Z,20.10
2022-12-12T15:19:40.786Z,19.90
2022-12-12T15:22:12.787Z,19.70
2022-12-12T15:24:41.368Z,19.80
2022-12-12T15:27:09.492Z,19.90
2022-12-12T15:29:39.129Z,19.70
2022-12-12T15:32:10.304Z,19.90
2022-12-12T15:34:43.875Z,19.60
2022-12-12T15:37:27.737Z,19.70
2022-12-12T15:40:15.013Z,19.70
2022-12-12T15:42:46.020Z,19.30
2022-12-12T15:45:21.640Z,19.20
2022-12-12T15:47:52.174Z,19.30
2022-12-12T15:50:25.672Z,19.20
2022-12-12T15:53:04.491Z,19.30
2022-12-12T15:55:33.096Z,19.20
2022-12-12T15:58:01.171Z,19.00
2022-12-12T16:00:35.325Z,19.10
2022-12-12T16:03:23.252Z,19.00
2022-12-12T16:06:06.220Z,19.00
2022-12-12T16:09:01.608Z,19.10
2022-12-12T16:11:43.296Z,19.00
2022-12-12T16:14:40.346Z,19.10
2022-12-12T16:17:14.114Z,19.00
2022-12-12T16:19:46.227Z,19.00
2022-12-12T16:22:33.011Z,18.80
2022-12-12T16:25:18.821Z,18.90
2022-12-12T16:27:49.259Z,18.70
2022-12-12T16:30:17.957Z,18.70
2022-12-12T16:32:46.136Z,19.00
2022-12-12T16:35:18.704Z,19.00
2022-12-12T16:37:48.379Z,18.90
2022-12-12T16:40:18.342Z,18.80
2022-12-12T16:43:04.777Z,19.00
2022-12-12T16:45:35.973Z,18.90
2022-12-12T16:48:15.234Z,19.00
2022-12-12T16:50:43.751Z,18.90
2022-12-12T16:53:13.161Z,18.80
2022-12-12T16:55:44.948Z,19.10
2022-12-12T16:58:12.966Z,19.00
2022-12-12T17:00:41.497Z,18.70
2022-12-12T17:03:10.848Z,18.80
2022-12-12T17:05:38.866Z,18.80
2022-12-12T17:08:07.056Z,18.70
2022-12-12T17:10:36.751Z,18.30
2022-12-12T17:13:07.127Z,18.40
2022-12-12T17:15:35.481Z,18.30
2022-12-12T17:18:04.139Z,18.50
2022-12-12T17:20:37.820Z,18.70
2022-12-12T17:25:58.848Z,18.60
2022-12-12T17:28:31.700Z,18.10
2022-12-12T17:30:59.727Z,18.50
2022-12-12T17:33:28.005Z,18.20
2022-12-12T17:36:00.809Z,18.00
2022-12-12T17:38:30.690Z,18.60
2022-12-12T17:41:04.989Z,18.50
2022-12-12T17:43:33.046Z,18.20
2022-12-12T17:46:04.418Z,18.50
2022-12-12T17:48:34.935Z,18.50
2022-12-12T17:51:06.275Z,18.50
2022-12-12T17:53:38.026Z,18.10
2022-12-12T17:56:09.790Z,18.00
2022-12-12T17:58:41.020Z,17.70
2022-12-12T18:01:14.092Z,17.80
2022-12-12T18:03:42.854Z,18.20
2022-12-12T18:06:12.154Z,17.60
2022-12-12T18:08:41.019Z,17.90
2022-12-12T18:11:13.680Z,17.70
2022-12-12T18:13:43.323Z,18.00
2022-12-12T18:16:13.939Z,17.70
2022-12-12T18:18:42.062Z,17.90
2022-12-12T18:21:23.704Z,17.60
2022-12-12T18:24:02.031Z,18.00
2022-12-12T18:26:31.602Z,17.60
2022-12-12T18:29:02.357Z,17.90
2022-12-12T18:31:32.284Z,17.70
2022-12-12T18:34:01.085Z,17.60
2022-12-12T18:36:31.736Z,17.50
2022-12-12T18:39:02.090Z,17.80
2022-12-12T18:41:32.947Z,17.60
2022-12-12T18:44:06.810Z,17.80
2022-12-12T18:46:42.432Z,17.60
2022-12-12T18:49:13.578Z,17.80
2022-12-12T18:51:42.222Z,17.70
2022-12-12T18:54:15.032Z,17.70
2022-12-12T18:56:47.299Z,18.00
2022-12-12T18:59:17.352Z,17.80
2022-12-12T19:01:45.926Z,17.80
2022-12-12T19:04:22.536Z,17.70
2022-12-12T19:06:51.055Z,17.70
2022-12-12T19:09:21.026Z,17.90
2022-12-12T19:11:52.406Z,17.50
2022-12-12T19:14:22.466Z,17.70
2022-12-12T19:16:50.483Z,17.60
2022-12-12T19:19:18.813Z,17.60
2022-12-12T19:21:48.040Z,17.60
2022-12-12T19:24:16.158Z,17.60
2022-12-12T19:26:45.304Z,17.50
2022-12-12T19:29:17.988Z,17.90
2022-12-12T19:31:46.559Z,17.70
2022-12-12T19:34:17.089Z,17.60
2022-12-12T19:36:45.135Z,17.60
2022-12-12T19:39:14.055Z,17.60
2022-12-12T19:41:42.953Z,17.60
2022-12-12T19:44:13.278Z,17.70
2022-12-12T19:46:45.981Z,17.80
2022-12-12T19:49:16.340Z,17.90
2022-12-12T19:51:45.619Z,17.40
2022-12-12T19:54:16.460Z,17.80
2022-12-12T19:56:45.760Z,17.40
2022-12-12T19:59:16.663Z,17.50
2022-12-12T20:01:47.037Z,17.80
2022-12-12T20:04:18.372Z,17.40
2022-12-12T20:06:49.272Z,17.50
2022-12-12T20:09:20.387Z,17.80
2022-12-12T20:11:48.799Z,17.70
2022-12-12T20:14:19.637Z,17.40
2022-12-12T20:16:49.540Z,17.60
2022-12-12T20:19:18.399Z,17.30
2022-12-12T20:22:00.782Z,17.20
2022-12-12T20:24:30.632Z,17.20
2022-12-12T20:26:59.384Z,17.20
2022-12-12T20:29:28.008Z,17.50
2022-12-12T20:31:59.492Z,17.70
2022-12-12T20:34:27.755Z,17.60
2022-12-12T20:36:56.076Z,17.10
2022-12-12T20:39:25.805Z,17.30
2022-12-12T20:41:54.438Z,17.50
2022-12-12T20:44:23.996Z,17.10
2022-12-12T20:46:52.853Z,17.20
2022-12-12T20:49:24.531Z,17.50
2022-12-12T20:51:57.648Z,17.40
2022-12-12T20:54:27.749Z,17.50
2022-12-12T20:56:55.854Z,17.20
2022-12-12T20:59:24.615Z,17.20
2022-12-12T21:01:53.177Z,17.30
2022-12-12T21:04:24.115Z,17.10
2022-12-12T21:06:52.440Z,17.20
2022-12-12T21:09:25.331Z,17.00
2022-12-12T21:11:55.986Z,17.30
2022-12-12T21:14:24.342Z,17.20
2022-12-12T21:16:52.760Z,17.20
2022-12-12T21:19:23.203Z,17.40
2022-12-12T21:21:51.810Z,17.30
2022-12-12T21:24:20.895Z,17.30
2022-12-12T21:26:49.170Z,17.20
2022-12-12T21:29:17.400Z,17.20
2022-12-12T21:31:51.615Z,17.50
2022-12-12T21:34:23.069Z,17.20
2022-12-12T21:36:52.832Z,17.50
2022-12-12T21:39:21.830Z,17.50
2022-12-12T21:41:51.182Z,17.30
2022-12-12T21:44:19.630Z,17.00
2022-12-12T21:46:47.941Z,17.40
2022-12-12T21:49:27.688Z,17.40
2022-12-12T21:51:59.905Z,17.30
2022-12-12T21:54:29.929Z,17.10
2022-12-12T21:56:59.042Z,17.20
2022-12-12T21:59:27.791Z,17.40
2022-12-12T22:01:57.549Z,17.30
2022-12-12T22:04:26.354Z,17.30
2022-12-12T22:06:54.448Z,17.10
2022-12-12T22:09:23.995Z,17.40
2022-12-12T22:12:03.532Z,17.40
2022-12-12T22:14:33.795Z,17.30
2022-12-12T22:17:02.562Z,17.20
2022-12-12T22:19:30.712Z,17.00
2022-12-12T22:21:58.709Z,17.30
2022-12-12T22:24:28.281Z,17.10
2022-12-12T22:26:56.244Z,17.20
2022-12-12T22:29:24.265Z,17.00
2022-12-12T22:31:52.973Z,17.00
2022-12-12T22:34:23.320Z,17.20
2022-12-12T22:36:52.897Z,17.00
2022-12-12T22:39:23.853Z,17.10
2022-12-12T22:41:54.371Z,17.30
2022-12-12T22:44:24.439Z,17.20
2022-12-12T22:46:55.406Z,17.10
2022-12-12T22:49:26.514Z,17.20
2022-12-12T22:51:56.117Z,17.20
2022-12-12T22:54:24.551Z,17.10
2022-12-12T22:56:54.003Z,17.20
2022-12-12T22:59:22.231Z,17.00
2022-12-12T23:01:50.225Z,17.20
2022-12-12T23:04:18.295Z,17.20
2022-12-12T23:06:46.307Z,17.10
2022-12-12T23:09:20.823Z,17.10
2022-12-12T23:11:48.840Z,16.80
2022-12-12T23:14:21.572Z,17.20
2022-12-12T23:16:51.092Z,17.10
2022-12-12T23:19:21.815Z,17.10
2022-12-12T23:21:50.273Z,17.40
2022-12-12T23:24:18.623Z,17.10
2022-12-12T23:26:46.648Z,16.90
2022-12-12T23:29:16.919Z,17.20
2022-12-12T23:31:46.522Z,17.00
2022-12-12T23:34:20.357Z,17.10
2022-12-12T23:36:48.742Z,17.30
2022-12-12T23:39:17.252Z,16.90
2022-12-12T23:41:45.753Z,17.10
2022-12-12T23:44:17.109Z,16.90
2022-12-12T23:46:46.719Z,16.80
2022-12-12T23:49:18.132Z,17.10
2022-12-12T23:51:48.894Z,17.00
2022-12-12T23:54:19.476Z,17.10
2022-12-12T23:56:48.994Z,17.10
2022-12-12T23:59:19.419Z,17.10
